Huffton, South Dakota
Current Conditions -  °F | °C
As of 5:30 AM on Friday 24 Oct 2014 (Local Time) from KABR Reporting Station
Haze Haze  
Wind Chill: 32°   Ceiling: Unl
Heat Index: 36°   Visibility: 1.2mi
Dew Point: 35°   Wind: 5mph
Humidity: 97%   Direction: 170°S
Pressure: 29.83"   Gusts: NA
Location:  45.6648°N, 98.0615°W
Report Text: KABR 241030Z AUTO 17004KT 1 1/4SM BR CLR 02/02 A2983 RMK AO2 T00220017
Loading
Personal Weather Stations






























Interactive Weather Map
Tropical Storm Tracking
New forecast layout! Learn more

10-Day Weather Forecast

Advertisements
Track Severe Weather on mobile